sensor_id;sensor_type;location;lat;lon;timestamp;P1;durP1;ratioP1;P2;durP2;ratioP2
16514;SDS011;8370;52.556;7.970;2023-03-01T00:01:48;11.43;;;6.27;;
16514;SDS011;8370;52.556;7.970;2023-03-01T00:04:13;13.13;;;6.13;;
16514;SDS011;8370;52.556;7.970;2023-03-01T00:06:39;13.30;;;6.33;;
16514;SDS011;8370;52.556;7.970;2023-03-01T00:09:04;12.47;;;6.17;;
16514;SDS011;8370;52.556;7.970;2023-03-01T00:11:31;13.93;;;6.30;;
16514;SDS011;8370;52.556;7.970;2023-03-01T00:13:59;16.23;;;6.30;;
16514;SDS011;8370;52.556;7.970;2023-03-01T00:16:30;11.70;;;6.60;;
16514;SDS011;8370;52.556;7.970;2023-03-01T00:18:58;11.57;;;5.83;;
16514;SDS011;8370;52.556;7.970;2023-03-01T00:21:24;11.10;;;6.10;;
16514;SDS011;8370;52.556;7.970;2023-03-01T00:23:51;12.77;;;6.20;;
16514;SDS011;8370;52.556;7.970;2023-03-01T00:26:17;10.60;;;5.77;;
16514;SDS011;8370;52.556;7.970;2023-03-01T00:28:44;12.30;;;6.00;;
16514;SDS011;8370;52.556;7.970;2023-03-01T00:31:14;10.83;;;5.70;;
16514;SDS011;8370;52.556;7.970;2023-03-01T00:33:42;11.13;;;5.43;;
16514;SDS011;8370;52.556;7.970;2023-03-01T00:36:08;8.63;;;5.33;;
16514;SDS011;8370;52.556;7.970;2023-03-01T00:38:36;12.70;;;6.27;;
16514;SDS011;8370;52.556;7.970;2023-03-01T00:41:03;9.80;;;5.27;;
16514;SDS011;8370;52.556;7.970;2023-03-01T00:43:32;12.50;;;6.07;;
16514;SDS011;8370;52.556;7.970;2023-03-01T00:46:01;7.47;;;4.60;;
16514;SDS011;8370;52.556;7.970;2023-03-01T00:48:31;11.43;;;4.80;;
16514;SDS011;8370;52.556;7.970;2023-03-01T00:50:57;10.93;;;5.40;;
16514;SDS011;8370;52.556;7.970;2023-03-01T00:53:28;9.73;;;5.30;;
16514;SDS011;8370;52.556;7.970;2023-03-01T00:55:54;10.00;;;5.77;;
16514;SDS011;8370;52.556;7.970;2023-03-01T00:58:22;11.27;;;4.63;;
16514;SDS011;8370;52.556;7.970;2023-03-01T01:00:47;13.67;;;6.07;;
16514;SDS011;8370;52.556;7.970;2023-03-01T01:03:13;9.77;;;5.40;;
16514;SDS011;8370;52.556;7.970;2023-03-01T01:05:38;11.90;;;5.37;;
16514;SDS011;8370;52.556;7.970;2023-03-01T01:08:04;12.57;;;5.67;;
16514;SDS011;8370;52.556;7.970;2023-03-01T01:10:29;10.27;;;5.37;;
16514;SDS011;8370;52.556;7.970;2023-03-01T01:12:55;10.03;;;5.23;;
16514;SDS011;8370;52.556;7.970;2023-03-01T01:15:20;9.50;;;5.07;;
16514;SDS011;8370;52.556;7.970;2023-03-01T01:17:46;9.17;;;5.43;;
16514;SDS011;8370;52.556;7.970;2023-03-01T01:20:11;10.43;;;5.90;;
16514;SDS011;8370;52.556;7.970;2023-03-01T01:22:37;9.67;;;5.27;;
16514;SDS011;8370;52.556;7.970;2023-03-01T01:25:02;9.27;;;5.23;;
16514;SDS011;8370;52.556;7.970;2023-03-01T01:27:29;12.70;;;5.40;;
16514;SDS011;8370;52.556;7.970;2023-03-01T01:29:54;8.40;;;5.50;;
16514;SDS011;8370;52.556;7.970;2023-03-01T01:32:20;8.87;;;5.30;;
16514;SDS011;8370;52.556;7.970;2023-03-01T01:34:45;12.50;;;5.83;;
16514;SDS011;8370;52.556;7.970;2023-03-01T01:37:11;12.00;;;6.10;;
16514;SDS011;8370;52.556;7.970;2023-03-01T01:39:37;9.07;;;5.33;;
16514;SDS011;8370;52.556;7.970;2023-03-01T01:42:02;11.20;;;5.57;;
16514;SDS011;8370;52.556;7.970;2023-03-01T01:44:28;7.60;;;4.77;;
16514;SDS011;8370;52.556;7.970;2023-03-01T01:47:00;8.47;;;5.20;;
16514;SDS011;8370;52.556;7.970;2023-03-01T01:52:19;7.03;;;4.77;;
16514;SDS011;8370;52.556;7.970;2023-03-01T01:55:07;10.43;;;5.33;;
16514;SDS011;8370;52.556;7.970;2023-03-01T01:57:45;7.97;;;5.00;;
16514;SDS011;8370;52.556;7.970;2023-03-01T02:00:25;9.17;;;5.87;;
16514;SDS011;8370;52.556;7.970;2023-03-01T02:02:54;11.30;;;5.20;;
16514;SDS011;8370;52.556;7.970;2023-03-01T02:05:44;10.43;;;5.10;;
16514;SDS011;8370;52.556;7.970;2023-03-01T02:08:30;8.53;;;5.00;;
16514;SDS011;8370;52.556;7.970;2023-03-01T02:10:59;10.30;;;5.47;;
16514;SDS011;8370;52.556;7.970;2023-03-01T02:13:26;11.97;;;5.70;;
16514;SDS011;8370;52.556;7.970;2023-03-01T02:15:52;9.40;;;5.37;;
16514;SDS011;8370;52.556;7.970;2023-03-01T02:18:18;12.00;;;5.30;;
16514;SDS011;8370;52.556;7.970;2023-03-01T02:23:42;10.07;;;5.20;;
16514;SDS011;8370;52.556;7.970;2023-03-01T02:26:23;12.63;;;4.70;;
16514;SDS011;8370;52.556;7.970;2023-03-01T02:28:53;9.10;;;5.67;;
16514;SDS011;8370;52.556;7.970;2023-03-01T02:31:20;11.83;;;5.23;;
16514;SDS011;8370;52.556;7.970;2023-03-01T02:34:05;9.87;;;5.17;;
16514;SDS011;8370;52.556;7.970;2023-03-01T02:36:34;11.37;;;4.73;;
16514;SDS011;8370;52.556;7.970;2023-03-01T02:39:03;13.00;;;5.33;;
16514;SDS011;8370;52.556;7.970;2023-03-01T02:41:32;7.27;;;4.87;;
16514;SDS011;8370;52.556;7.970;2023-03-01T02:44:02;8.23;;;5.17;;
16514;SDS011;8370;52.556;7.970;2023-03-01T02:46:28;11.07;;;5.20;;
16514;SDS011;8370;52.556;7.970;2023-03-01T02:48:54;9.80;;;5.20;;
16514;SDS011;8370;52.556;7.970;2023-03-01T02:51:33;11.73;;;5.93;;
16514;SDS011;8370;52.556;7.970;2023-03-01T02:54:13;9.23;;;5.60;;
16514;SDS011;8370;52.556;7.970;2023-03-01T02:56:46;9.23;;;5.10;;
16514;SDS011;8370;52.556;7.970;2023-03-01T02:59:13;10.27;;;5.30;;
16514;SDS011;8370;52.556;7.970;2023-03-01T03:01:40;7.67;;;4.63;;
16514;SDS011;8370;52.556;7.970;2023-03-01T03:04:08;8.67;;;4.70;;
16514;SDS011;8370;52.556;7.970;2023-03-01T03:06:35;8.77;;;4.83;;
16514;SDS011;8370;52.556;7.970;2023-03-01T03:09:02;8.70;;;5.27;;
16514;SDS011;8370;52.556;7.970;2023-03-01T03:11:28;10.40;;;4.83;;
16514;SDS011;8370;52.556;7.970;2023-03-01T03:13:54;6.63;;;4.37;;
16514;SDS011;8370;52.556;7.970;2023-03-01T03:16:20;8.80;;;5.07;;
16514;SDS011;8370;52.556;7.970;2023-03-01T03:18:46;10.27;;;5.37;;
16514;SDS011;8370;52.556;7.970;2023-03-01T03:21:11;8.87;;;4.90;;
16514;SDS011;8370;52.556;7.970;2023-03-01T03:23:37;9.33;;;5.10;;
16514;SDS011;8370;52.556;7.970;2023-03-01T03:26:04;10.37;;;4.40;;
16514;SDS011;8370;52.556;7.970;2023-03-01T03:28:30;8.13;;;4.93;;
16514;SDS011;8370;52.556;7.970;2023-03-01T03:30:57;5.63;;;3.93;;
16514;SDS011;8370;52.556;7.970;2023-03-01T03:33:24;6.93;;;4.83;;
16514;SDS011;8370;52.556;7.970;2023-03-01T03:35:49;9.30;;;4.63;;
16514;SDS011;8370;52.556;7.970;2023-03-01T03:38:16;10.40;;;4.93;;
16514;SDS011;8370;52.556;7.970;2023-03-01T03:40:51;8.37;;;4.70;;
16514;SDS011;8370;52.556;7.970;2023-03-01T03:43:21;12.00;;;4.60;;
16514;SDS011;8370;52.556;7.970;2023-03-01T03:45:49;8.30;;;5.20;;
16514;SDS011;8370;52.556;7.970;2023-03-01T03:48:15;8.00;;;4.80;;
16514;SDS011;8370;52.556;7.970;2023-03-01T03:50:46;6.80;;;4.63;;
16514;SDS011;8370;52.556;7.970;2023-03-01T03:53:14;7.90;;;4.50;;
16514;SDS011;8370;52.556;7.970;2023-03-01T03:55:40;8.13;;;5.00;;
16514;SDS011;8370;52.556;7.970;2023-03-01T03:58:09;9.27;;;5.13;;
16514;SDS011;8370;52.556;7.970;2023-03-01T04:00:36;7.53;;;4.87;;
16514;SDS011;8370;52.556;7.970;2023-03-01T04:03:04;7.07;;;5.03;;
16514;SDS011;8370;52.556;7.970;2023-03-01T04:05:30;10.33;;;5.37;;
16514;SDS011;8370;52.556;7.970;2023-03-01T04:07:56;6.70;;;4.80;;
16514;SDS011;8370;52.556;7.970;2023-03-01T04:10:28;8.20;;;4.70;;
16514;SDS011;8370;52.556;7.970;2023-03-01T04:12:56;12.03;;;4.80;;
16514;SDS011;8370;52.556;7.970;2023-03-01T04:15:22;14.07;;;5.17;;
16514;SDS011;8370;52.556;7.970;2023-03-01T04:17:49;6.87;;;4.30;;
16514;SDS011;8370;52.556;7.970;2023-03-01T04:20:18;8.03;;;5.27;;
16514;SDS011;8370;52.556;7.970;2023-03-01T04:22:50;10.33;;;5.20;;
16514;SDS011;8370;52.556;7.970;2023-03-01T04:25:17;7.17;;;4.80;;
16514;SDS011;8370;52.556;7.970;2023-03-01T04:27:43;13.53;;;5.63;;
16514;SDS011;8370;52.556;7.970;2023-03-01T04:30:09;10.90;;;4.40;;
16514;SDS011;8370;52.556;7.970;2023-03-01T04:32:35;11.37;;;4.70;;
16514;SDS011;8370;52.556;7.970;2023-03-01T04:35:00;9.20;;;5.23;;
16514;SDS011;8370;52.556;7.970;2023-03-01T04:37:26;10.30;;;5.47;;
16514;SDS011;8370;52.556;7.970;2023-03-01T04:39:52;9.13;;;4.70;;
16514;SDS011;8370;52.556;7.970;2023-03-01T04:42:17;7.73;;;4.87;;
16514;SDS011;8370;52.556;7.970;2023-03-01T04:44:44;8.80;;;5.23;;
16514;SDS011;8370;52.556;7.970;2023-03-01T04:47:10;10.87;;;5.57;;
16514;SDS011;8370;52.556;7.970;2023-03-01T04:49:36;10.27;;;5.27;;
16514;SDS011;8370;52.556;7.970;2023-03-01T04:52:02;8.77;;;4.57;;
16514;SDS011;8370;52.556;7.970;2023-03-01T04:54:28;10.60;;;4.90;;
16514;SDS011;8370;52.556;7.970;2023-03-01T04:56:55;8.20;;;5.43;;
16514;SDS011;8370;52.556;7.970;2023-03-01T04:59:20;9.13;;;4.93;;
16514;SDS011;8370;52.556;7.970;2023-03-01T05:01:49;9.00;;;5.10;;
16514;SDS011;8370;52.556;7.970;2023-03-01T05:04:15;7.53;;;4.53;;
16514;SDS011;8370;52.556;7.970;2023-03-01T05:06:40;9.03;;;4.87;;
16514;SDS011;8370;52.556;7.970;2023-03-01T05:09:06;8.23;;;4.73;;
16514;SDS011;8370;52.556;7.970;2023-03-01T05:11:32;9.73;;;4.87;;
16514;SDS011;8370;52.556;7.970;2023-03-01T05:14:01;9.33;;;5.23;;
16514;SDS011;8370;52.556;7.970;2023-03-01T05:16:27;8.07;;;5.10;;
16514;SDS011;8370;52.556;7.970;2023-03-01T05:18:53;8.33;;;5.23;;
16514;SDS011;8370;52.556;7.970;2023-03-01T05:21:20;9.67;;;4.87;;
16514;SDS011;8370;52.556;7.970;2023-03-01T05:23:46;10.00;;;5.50;;
16514;SDS011;8370;52.556;7.970;2023-03-01T05:26:12;8.13;;;4.87;;
16514;SDS011;8370;52.556;7.970;2023-03-01T05:28:38;10.87;;;5.10;;
16514;SDS011;8370;52.556;7.970;2023-03-01T05:31:04;8.77;;;4.93;;
16514;SDS011;8370;52.556;7.970;2023-03-01T05:33:34;14.37;;;5.00;;
16514;SDS011;8370;52.556;7.970;2023-03-01T05:36:01;9.00;;;5.17;;
16514;SDS011;8370;52.556;7.970;2023-03-01T05:38:27;8.37;;;5.73;;
16514;SDS011;8370;52.556;7.970;2023-03-01T05:40:52;7.30;;;4.80;;
16514;SDS011;8370;52.556;7.970;2023-03-01T05:43:18;10.17;;;5.13;;
16514;SDS011;8370;52.556;7.970;2023-03-01T05:45:44;9.10;;;4.70;;
16514;SDS011;8370;52.556;7.970;2023-03-01T05:48:10;12.63;;;5.33;;
16514;SDS011;8370;52.556;7.970;2023-03-01T05:50:38;11.67;;;5.13;;
16514;SDS011;8370;52.556;7.970;2023-03-01T05:53:06;11.50;;;5.00;;
16514;SDS011;8370;52.556;7.970;2023-03-01T05:55:36;11.60;;;5.13;;
16514;SDS011;8370;52.556;7.970;2023-03-01T05:58:02;8.20;;;4.87;;
16514;SDS011;8370;52.556;7.970;2023-03-01T06:00:30;8.47;;;4.83;;
16514;SDS011;8370;52.556;7.970;2023-03-01T06:02:56;8.63;;;4.60;;
16514;SDS011;8370;52.556;7.970;2023-03-01T06:05:23;9.23;;;4.90;;
16514;SDS011;8370;52.556;7.970;2023-03-01T06:07:49;8.37;;;4.80;;
16514;SDS011;8370;52.556;7.970;2023-03-01T06:10:15;10.03;;;5.03;;
16514;SDS011;8370;52.556;7.970;2023-03-01T06:12:42;6.83;;;4.60;;
16514;SDS011;8370;52.556;7.970;2023-03-01T06:15:08;15.03;;;5.50;;
16514;SDS011;8370;52.556;7.970;2023-03-01T06:17:36;9.30;;;4.57;;
16514;SDS011;8370;52.556;7.970;2023-03-01T06:20:04;9.03;;;4.63;;
16514;SDS011;8370;52.556;7.970;2023-03-01T06:22:31;8.83;;;4.63;;
16514;SDS011;8370;52.556;7.970;2023-03-01T06:24:56;9.57;;;4.53;;
16514;SDS011;8370;52.556;7.970;2023-03-01T06:27:22;7.43;;;4.87;;
16514;SDS011;8370;52.556;7.970;2023-03-01T06:29:47;10.37;;;4.57;;
16514;SDS011;8370;52.556;7.970;2023-03-01T06:32:13;9.37;;;5.17;;
16514;SDS011;8370;52.556;7.970;2023-03-01T06:34:39;8.23;;;4.73;;
16514;SDS011;8370;52.556;7.970;2023-03-01T06:37:05;12.53;;;5.10;;
16514;SDS011;8370;52.556;7.970;2023-03-01T06:39:31;9.27;;;4.47;;
16514;SDS011;8370;52.556;7.970;2023-03-01T06:41:57;9.43;;;4.67;;
16514;SDS011;8370;52.556;7.970;2023-03-01T06:44:23;14.87;;;5.00;;
16514;SDS011;8370;52.556;7.970;2023-03-01T06:46:48;10.27;;;5.20;;
16514;SDS011;8370;52.556;7.970;2023-03-01T06:49:14;9.53;;;4.83;;
16514;SDS011;8370;52.556;7.970;2023-03-01T06:51:41;11.10;;;5.23;;
16514;SDS011;8370;52.556;7.970;2023-03-01T06:54:06;8.30;;;4.90;;
16514;SDS011;8370;52.556;7.970;2023-03-01T06:56:32;8.77;;;4.80;;
16514;SDS011;8370;52.556;7.970;2023-03-01T06:58:58;11.00;;;5.10;;
16514;SDS011;8370;52.556;7.970;2023-03-01T07:01:23;11.37;;;5.33;;
16514;SDS011;8370;52.556;7.970;2023-03-01T07:03:49;9.77;;;4.73;;
16514;SDS011;8370;52.556;7.970;2023-03-01T07:06:14;10.83;;;5.17;;
16514;SDS011;8370;52.556;7.970;2023-03-01T07:08:40;11.67;;;5.70;;
16514;SDS011;8370;52.556;7.970;2023-03-01T07:11:05;10.93;;;5.70;;
16514;SDS011;8370;52.556;7.970;2023-03-01T07:13:32;8.40;;;5.67;;
16514;SDS011;8370;52.556;7.970;2023-03-01T07:15:57;11.10;;;5.20;;
16514;SDS011;8370;52.556;7.970;2023-03-01T07:18:23;11.20;;;5.77;;
16514;SDS011;8370;52.556;7.970;2023-03-01T07:20:48;11.67;;;5.20;;
16514;SDS011;8370;52.556;7.970;2023-03-01T07:23:14;15.00;;;6.77;;
16514;SDS011;8370;52.556;7.970;2023-03-01T07:25:40;20.00;;;11.30;;
16514;SDS011;8370;52.556;7.970;2023-03-01T07:28:06;14.30;;;8.70;;
16514;SDS011;8370;52.556;7.970;2023-03-01T07:30:32;17.57;;;8.40;;
16514;SDS011;8370;52.556;7.970;2023-03-01T07:32:58;14.90;;;7.50;;
16514;SDS011;8370;52.556;7.970;2023-03-01T07:35:27;14.20;;;8.17;;
16514;SDS011;8370;52.556;7.970;2023-03-01T07:37:52;15.70;;;8.87;;
16514;SDS011;8370;52.556;7.970;2023-03-01T07:40:18;17.87;;;9.60;;
16514;SDS011;8370;52.556;7.970;2023-03-01T07:42:44;17.03;;;9.47;;
16514;SDS011;8370;52.556;7.970;2023-03-01T07:45:10;13.47;;;8.70;;
16514;SDS011;8370;52.556;7.970;2023-03-01T07:47:36;18.97;;;9.73;;
16514;SDS011;8370;52.556;7.970;2023-03-01T07:50:02;14.77;;;8.33;;
16514;SDS011;8370;52.556;7.970;2023-03-01T07:52:29;15.70;;;8.80;;
16514;SDS011;8370;52.556;7.970;2023-03-01T07:54:55;14.90;;;8.23;;
16514;SDS011;8370;52.556;7.970;2023-03-01T07:57:21;14.40;;;8.20;;
16514;SDS011;8370;52.556;7.970;2023-03-01T07:59:46;15.00;;;7.77;;
16514;SDS011;8370;52.556;7.970;2023-03-01T08:02:12;13.17;;;6.97;;
16514;SDS011;8370;52.556;7.970;2023-03-01T08:04:37;12.30;;;7.13;;
16514;SDS011;8370;52.556;7.970;2023-03-01T08:07:04;13.73;;;7.70;;
16514;SDS011;8370;52.556;7.970;2023-03-01T08:09:30;12.53;;;8.37;;
16514;SDS011;8370;52.556;7.970;2023-03-01T08:11:56;18.90;;;11.10;;
16514;SDS011;8370;52.556;7.970;2023-03-01T08:14:24;18.73;;;10.63;;
16514;SDS011;8370;52.556;7.970;2023-03-01T08:16:50;18.67;;;10.73;;
16514;SDS011;8370;52.556;7.970;2023-03-01T08:19:15;14.83;;;9.00;;
16514;SDS011;8370;52.556;7.970;2023-03-01T08:21:41;12.57;;;8.33;;
16514;SDS011;8370;52.556;7.970;2023-03-01T08:24:06;19.43;;;9.83;;
16514;SDS011;8370;52.556;7.970;2023-03-01T08:26:32;18.57;;;10.33;;
16514;SDS011;8370;52.556;7.970;2023-03-01T08:28:59;13.90;;;9.73;;
16514;SDS011;8370;52.556;7.970;2023-03-01T08:31:26;15.53;;;8.23;;
16514;SDS011;8370;52.556;7.970;2023-03-01T08:33:55;12.23;;;7.53;;
16514;SDS011;8370;52.556;7.970;2023-03-01T08:36:26;11.30;;;7.87;;
16514;SDS011;8370;52.556;7.970;2023-03-01T08:38:53;13.93;;;7.20;;
16514;SDS011;8370;52.556;7.970;2023-03-01T08:41:19;13.20;;;7.73;;
16514;SDS011;8370;52.556;7.970;2023-03-01T08:43:44;10.27;;;6.80;;
16514;SDS011;8370;52.556;7.970;2023-03-01T08:46:10;11.17;;;7.10;;
16514;SDS011;8370;52.556;7.970;2023-03-01T08:48:36;13.80;;;7.37;;
16514;SDS011;8370;52.556;7.970;2023-03-01T08:51:09;14.10;;;6.53;;
16514;SDS011;8370;52.556;7.970;2023-03-01T08:53:36;10.67;;;6.40;;
16514;SDS011;8370;52.556;7.970;2023-03-01T08:56:02;9.73;;;5.90;;
16514;SDS011;8370;52.556;7.970;2023-03-01T08:58:28;17.60;;;6.70;;
16514;SDS011;8370;52.556;7.970;2023-03-01T09:00:54;14.00;;;6.77;;
16514;SDS011;8370;52.556;7.970;2023-03-01T09:03:21;14.13;;;7.00;;
16514;SDS011;8370;52.556;7.970;2023-03-01T09:05:47;11.13;;;5.80;;
16514;SDS011;8370;52.556;7.970;2023-03-01T09:08:15;12.63;;;6.43;;
16514;SDS011;8370;52.556;7.970;2023-03-01T09:10:41;8.47;;;6.20;;
16514;SDS011;8370;52.556;7.970;2023-03-01T09:13:06;9.33;;;6.03;;
16514;SDS011;8370;52.556;7.970;2023-03-01T09:15:32;11.67;;;6.60;;
16514;SDS011;8370;52.556;7.970;2023-03-01T09:17:58;11.77;;;7.20;;
16514;SDS011;8370;52.556;7.970;2023-03-01T09:20:24;9.93;;;5.80;;
16514;SDS011;8370;52.556;7.970;2023-03-01T09:22:50;13.83;;;6.33;;
16514;SDS011;8370;52.556;7.970;2023-03-01T09:25:15;10.30;;;6.07;;
16514;SDS011;8370;52.556;7.970;2023-03-01T09:27:41;8.03;;;5.43;;
16514;SDS011;8370;52.556;7.970;2023-03-01T09:30:07;10.43;;;5.93;;
16514;SDS011;8370;52.556;7.970;2023-03-01T09:32:33;8.47;;;5.77;;
16514;SDS011;8370;52.556;7.970;2023-03-01T09:34:59;9.40;;;5.63;;
16514;SDS011;8370;52.556;7.970;2023-03-01T09:37:29;11.03;;;6.37;;
16514;SDS011;8370;52.556;7.970;2023-03-01T09:39:56;7.00;;;5.17;;
16514;SDS011;8370;52.556;7.970;2023-03-01T09:42:22;6.43;;;4.43;;
16514;SDS011;8370;52.556;7.970;2023-03-01T09:44:49;11.57;;;4.83;;
16514;SDS011;8370;52.556;7.970;2023-03-01T09:47:21;9.03;;;5.30;;
16514;SDS011;8370;52.556;7.970;2023-03-01T09:52:58;8.47;;;4.53;;
16514;SDS011;8370;52.556;7.970;2023-03-01T09:55:33;14.97;;;5.13;;
16514;SDS011;8370;52.556;7.970;2023-03-01T10:00:53;9.67;;;4.90;;
16514;SDS011;8370;52.556;7.970;2023-03-01T10:03:27;6.83;;;4.07;;
16514;SDS011;8370;52.556;7.970;2023-03-01T10:06:11;8.63;;;4.10;;
16514;SDS011;8370;52.556;7.970;2023-03-01T10:11:21;14.00;;;4.50;;
16514;SDS011;8370;52.556;7.970;2023-03-01T10:14:01;5.63;;;3.60;;
16514;SDS011;8370;52.556;7.970;2023-03-01T10:16:53;6.03;;;2.57;;
16514;SDS011;8370;52.556;7.970;2023-03-01T10:22:11;7.57;;;3.50;;
16514;SDS011;8370;52.556;7.970;2023-03-01T10:24:40;6.60;;;2.97;;
16514;SDS011;8370;52.556;7.970;2023-03-01T10:27:07;9.67;;;3.07;;
16514;SDS011;8370;52.556;7.970;2023-03-01T10:32:27;3.90;;;2.40;;
16514;SDS011;8370;52.556;7.970;2023-03-01T10:34:53;5.57;;;2.93;;
16514;SDS011;8370;52.556;7.970;2023-03-01T10:37:19;5.70;;;3.37;;
16514;SDS011;8370;52.556;7.970;2023-03-01T10:39:58;4.93;;;2.80;;
16514;SDS011;8370;52.556;7.970;2023-03-01T10:42:30;6.70;;;2.90;;
16514;SDS011;8370;52.556;7.970;2023-03-01T10:44:58;3.87;;;2.37;;
16514;SDS011;8370;52.556;7.970;2023-03-01T10:50:50;8.67;;;2.23;;
16514;SDS011;8370;52.556;7.970;2023-03-01T10:53:32;6.90;;;2.37;;
16514;SDS011;8370;52.556;7.970;2023-03-01T10:56:12;4.47;;;2.70;;
16514;SDS011;8370;52.556;7.970;2023-03-01T10:58:40;6.57;;;2.93;;
16514;SDS011;8370;52.556;7.970;2023-03-01T11:01:27;4.10;;;2.30;;
16514;SDS011;8370;52.556;7.970;2023-03-01T11:06:31;3.13;;;2.20;;
16514;SDS011;8370;52.556;7.970;2023-03-01T11:08:57;4.53;;;2.60;;
16514;SDS011;8370;52.556;7.970;2023-03-01T11:11:45;2.83;;;2.33;;
16514;SDS011;8370;52.556;7.970;2023-03-01T11:14:17;4.50;;;2.80;;
16514;SDS011;8370;52.556;7.970;2023-03-01T11:16:47;4.97;;;2.77;;
16514;SDS011;8370;52.556;7.970;2023-03-01T11:19:22;4.77;;;2.70;;
16514;SDS011;8370;52.556;7.970;2023-03-01T11:21:52;3.53;;;2.33;;
16514;SDS011;8370;52.556;7.970;2023-03-01T11:24:19;5.13;;;3.30;;
16514;SDS011;8370;52.556;7.970;2023-03-01T11:26:55;5.87;;;3.37;;
16514;SDS011;8370;52.556;7.970;2023-03-01T11:29:26;4.77;;;3.20;;
16514;SDS011;8370;52.556;7.970;2023-03-01T11:32:07;6.53;;;3.17;;
16514;SDS011;8370;52.556;7.970;2023-03-01T11:34:39;7.50;;;3.10;;
16514;SDS011;8370;52.556;7.970;2023-03-01T11:37:11;6.80;;;3.20;;
16514;SDS011;8370;52.556;7.970;2023-03-01T11:40:11;5.37;;;3.37;;
16514;SDS011;8370;52.556;7.970;2023-03-01T11:45:32;4.60;;;3.13;;
16514;SDS011;8370;52.556;7.970;2023-03-01T11:51:02;3.40;;;2.70;;
16514;SDS011;8370;52.556;7.970;2023-03-01T11:56:40;3.43;;;2.47;;
16514;SDS011;8370;52.556;7.970;2023-03-01T12:07:12;4.20;;;3.10;;
16514;SDS011;8370;52.556;7.970;2023-03-01T12:15:37;8.17;;;2.60;;
16514;SDS011;8370;52.556;7.970;2023-03-01T12:23:54;4.90;;;2.90;;
16514;SDS011;8370;52.556;7.970;2023-03-01T12:27:07;5.13;;;3.13;;
16514;SDS011;8370;52.556;7.970;2023-03-01T12:30:13;4.80;;;3.10;;
16514;SDS011;8370;52.556;7.970;2023-03-01T12:49:35;5.13;;;2.87;;
16514;SDS011;8370;52.556;7.970;2023-03-01T12:54:47;5.90;;;2.80;;
16514;SDS011;8370;52.556;7.970;2023-03-01T12:57:20;10.00;;;3.30;;
16514;SDS011;8370;52.556;7.970;2023-03-01T13:00:03;5.73;;;2.97;;
16514;SDS011;8370;52.556;7.970;2023-03-01T13:02:45;4.50;;;2.97;;
16514;SDS011;8370;52.556;7.970;2023-03-01T13:05:36;7.67;;;2.77;;
16514;SDS011;8370;52.556;7.970;2023-03-01T13:08:23;4.40;;;3.00;;
16514;SDS011;8370;52.556;7.970;2023-03-01T13:10:58;3.77;;;2.80;;
16514;SDS011;8370;52.556;7.970;2023-03-01T13:13:27;6.10;;;2.43;;
16514;SDS011;8370;52.556;7.970;2023-03-01T13:15:54;6.40;;;3.37;;
16514;SDS011;8370;52.556;7.970;2023-03-01T13:20:50;5.13;;;3.13;;
16514;SDS011;8370;52.556;7.970;2023-03-01T13:31:56;6.13;;;3.17;;
16514;SDS011;8370;52.556;7.970;2023-03-01T13:33:57;7.43;;;3.43;;
16514;SDS011;8370;52.556;7.970;2023-03-01T13:39:00;6.43;;;3.13;;
16514;SDS011;8370;52.556;7.970;2023-03-01T13:46:49;5.47;;;3.27;;
16514;SDS011;8370;52.556;7.970;2023-03-01T13:49:18;7.07;;;4.17;;
16514;SDS011;8370;52.556;7.970;2023-03-01T13:51:50;7.77;;;3.73;;
16514;SDS011;8370;52.556;7.970;2023-03-01T13:54:20;6.17;;;3.53;;
16514;SDS011;8370;52.556;7.970;2023-03-01T13:56:51;6.13;;;3.63;;
16514;SDS011;8370;52.556;7.970;2023-03-01T13:59:18;6.70;;;3.47;;
16514;SDS011;8370;52.556;7.970;2023-03-01T14:01:51;6.43;;;3.20;;
16514;SDS011;8370;52.556;7.970;2023-03-01T14:04:31;4.37;;;3.03;;
16514;SDS011;8370;52.556;7.970;2023-03-01T14:07:10;5.60;;;3.10;;
16514;SDS011;8370;52.556;7.970;2023-03-01T14:09:47;5.90;;;3.37;;
16514;SDS011;8370;52.556;7.970;2023-03-01T14:17:53;5.87;;;3.23;;
16514;SDS011;8370;52.556;7.970;2023-03-01T14:20:25;6.17;;;3.33;;
16514;SDS011;8370;52.556;7.970;2023-03-01T14:22:54;6.70;;;3.63;;
16514;SDS011;8370;52.556;7.970;2023-03-01T14:27:54;8.10;;;3.40;;
16514;SDS011;8370;52.556;7.970;2023-03-01T14:31:25;6.83;;;3.07;;
16514;SDS011;8370;52.556;7.970;2023-03-01T14:41:11;5.10;;;3.20;;
16514;SDS011;8370;52.556;7.970;2023-03-01T14:44:41;7.00;;;4.00;;
16514;SDS011;8370;52.556;7.970;2023-03-01T14:46:41;6.23;;;3.57;;
16514;SDS011;8370;52.556;7.970;2023-03-01T14:49:30;3.77;;;2.97;;
16514;SDS011;8370;52.556;7.970;2023-03-01T14:52:06;5.40;;;2.87;;
16514;SDS011;8370;52.556;7.970;2023-03-01T14:54:49;5.43;;;3.20;;
16514;SDS011;8370;52.556;7.970;2023-03-01T14:59:43;12.00;;;3.93;;
16514;SDS011;8370;52.556;7.970;2023-03-01T15:02:12;5.60;;;3.70;;
16514;SDS011;8370;52.556;7.970;2023-03-01T15:04:49;6.37;;;3.70;;
16514;SDS011;8370;52.556;7.970;2023-03-01T15:07:25;5.10;;;3.37;;
16514;SDS011;8370;52.556;7.970;2023-03-01T15:09:56;7.47;;;3.80;;
16514;SDS011;8370;52.556;7.970;2023-03-01T15:15:08;5.50;;;3.40;;
16514;SDS011;8370;52.556;7.970;2023-03-01T15:17:55;6.37;;;3.27;;
16514;SDS011;8370;52.556;7.970;2023-03-01T15:20:25;7.73;;;3.73;;
16514;SDS011;8370;52.556;7.970;2023-03-01T15:22:52;5.40;;;2.70;;
16514;SDS011;8370;52.556;7.970;2023-03-01T15:25:20;7.10;;;3.83;;
16514;SDS011;8370;52.556;7.970;2023-03-01T15:27:48;6.20;;;3.83;;
16514;SDS011;8370;52.556;7.970;2023-03-01T15:30:26;6.90;;;3.53;;
16514;SDS011;8370;52.556;7.970;2023-03-01T15:35:48;6.80;;;3.37;;
16514;SDS011;8370;52.556;7.970;2023-03-01T15:38:26;5.63;;;2.93;;
16514;SDS011;8370;52.556;7.970;2023-03-01T15:40:53;6.87;;;3.70;;
16514;SDS011;8370;52.556;7.970;2023-03-01T15:43:40;6.27;;;3.50;;
16514;SDS011;8370;52.556;7.970;2023-03-01T15:46:17;8.30;;;3.47;;
16514;SDS011;8370;52.556;7.970;2023-03-01T15:48:47;6.07;;;3.17;;
16514;SDS011;8370;52.556;7.970;2023-03-01T15:51:14;7.50;;;4.00;;
16514;SDS011;8370;52.556;7.970;2023-03-01T15:53:41;6.30;;;3.63;;
16514;SDS011;8370;52.556;7.970;2023-03-01T15:56:08;7.20;;;3.93;;
16514;SDS011;8370;52.556;7.970;2023-03-01T15:58:34;6.40;;;3.90;;
16514;SDS011;8370;52.556;7.970;2023-03-01T16:00:59;9.93;;;4.70;;
16514;SDS011;8370;52.556;7.970;2023-03-01T16:03:25;7.93;;;4.53;;
16514;SDS011;8370;52.556;7.970;2023-03-01T16:05:51;7.77;;;4.17;;
16514;SDS011;8370;52.556;7.970;2023-03-01T16:08:17;7.57;;;4.10;;
16514;SDS011;8370;52.556;7.970;2023-03-01T16:10:43;6.67;;;3.17;;
16514;SDS011;8370;52.556;7.970;2023-03-01T16:13:11;7.90;;;4.23;;
16514;SDS011;8370;52.556;7.970;2023-03-01T16:15:37;8.20;;;4.20;;
16514;SDS011;8370;52.556;7.970;2023-03-01T16:18:04;8.53;;;4.10;;
16514;SDS011;8370;52.556;7.970;2023-03-01T16:20:31;7.70;;;4.10;;
16514;SDS011;8370;52.556;7.970;2023-03-01T16:23:00;7.40;;;3.93;;
16514;SDS011;8370;52.556;7.970;2023-03-01T16:25:27;8.47;;;4.13;;
16514;SDS011;8370;52.556;7.970;2023-03-01T16:27:54;8.90;;;4.57;;
16514;SDS011;8370;52.556;7.970;2023-03-01T16:30:21;8.70;;;4.50;;
16514;SDS011;8370;52.556;7.970;2023-03-01T16:32:47;7.60;;;4.60;;
16514;SDS011;8370;52.556;7.970;2023-03-01T16:35:14;11.07;;;5.27;;
16514;SDS011;8370;52.556;7.970;2023-03-01T16:37:42;7.23;;;4.00;;
16514;SDS011;8370;52.556;7.970;2023-03-01T16:42:53;8.50;;;4.40;;
16514;SDS011;8370;52.556;7.970;2023-03-01T16:45:24;8.07;;;4.47;;
16514;SDS011;8370;52.556;7.970;2023-03-01T16:47:50;6.67;;;4.80;;
16514;SDS011;8370;52.556;7.970;2023-03-01T16:50:16;7.10;;;4.50;;
16514;SDS011;8370;52.556;7.970;2023-03-01T16:52:41;10.27;;;5.33;;
16514;SDS011;8370;52.556;7.970;2023-03-01T16:55:07;7.43;;;4.50;;
16514;SDS011;8370;52.556;7.970;2023-03-01T16:57:34;7.97;;;4.57;;
16514;SDS011;8370;52.556;7.970;2023-03-01T17:00:00;9.63;;;5.40;;
16514;SDS011;8370;52.556;7.970;2023-03-01T17:02:33;9.73;;;5.43;;
16514;SDS011;8370;52.556;7.970;2023-03-01T17:04:59;8.60;;;4.67;;
16514;SDS011;8370;52.556;7.970;2023-03-01T17:07:25;10.03;;;5.07;;